Hauptseite
METAR-TAF:

METAR-TAF

Flughäfen :

Flughafen Damaskus

Damaskus, Syrien

Breite: 33-25N, Länge: 036-31E, Höhe: 608 m

Beobachtung

Neuester Wetterbericht von vor 14 Minuten, um 03:00 UTC
Wind 6 kt aus Nord/Nordost
Temperatur 10°C
Luftfeuchtigkeit 87%
Luftdruck 1024 hPa

METAR: OSDI 170300Z 03006KT 2000BR 10/08 Q1024

Zeit: 05:14 (03:14 UTC)

Prognose

Neuester Wetterbericht von vor 6 Stunden und 4 Minuten, um 21:10 UTC
Gültige Prognose vom 17 um 00 UTC bis 18 um 06 UTC
Wind 10 kt aus Südwest
Sichtweite: 8000 m
Durchbrochene Bewölkung in der Höhe von 10000 ft
Zeitweise
vom 17 um 02 UTC bis 17 um 06 UTC
Wind 3 kt aus unterschiedlichen Richtungen
Sichtweite: 4000 m
feuchter Dunst

TAF: OSDI 162110Z 1700/1806 22010KT 8000 SCT030M BKN100 TEMPO 1702/1706 VRB03KT 4000 BR

Wetterbeobachtungen und Prognosen von mehr als 4000 Flughäfen (METAR und TAF Bericht).

Die verfügbaren Stationen werden durch gelbe und rote Markierungen auf der Karte dargestellt.

Führen Sie die Maus auf sie, um den Namen der Station zu sehen.

Darauf klicken, um die Beobachtung von Wetterbeobachtungen und Prognosen zu sehen.

Um die Karte zu ändern : klicken Sie auf den grünen Tasten mit einem schwarzen Kreuz Zum Vergrößern, auf den grünen Button mit einem Gedankenstrich zu verkleinern, oder auf die grünen Pfeile für benachbarte Karten.


METAR-TAF: